createdAt,value
2018-10-21T00:01:18.324Z,34.60
2018-10-21T00:03:47.023Z,35.70
2018-10-21T00:06:15.707Z,32.73
2018-10-21T00:08:45.671Z,34.07
2018-10-21T00:11:14.976Z,33.43
2018-10-21T00:13:43.657Z,33.53
2018-10-21T00:16:12.426Z,34.83
2018-10-21T00:18:41.255Z,31.50
2018-10-21T00:21:10.130Z,37.17
2018-10-21T00:23:38.826Z,35.73
2018-10-21T00:26:07.549Z,34.83
2018-10-21T00:28:36.498Z,31.33
2018-10-21T00:31:05.638Z,31.87
2018-10-21T00:33:34.675Z,33.90
2018-10-21T00:36:03.486Z,31.73
2018-10-21T00:38:32.234Z,33.87
2018-10-21T00:41:00.997Z,38.63
2018-10-21T00:43:29.852Z,40.03
2018-10-21T00:45:58.538Z,36.57
2018-10-21T00:48:27.543Z,37.27
2018-10-21T00:50:56.306Z,38.77
2018-10-21T00:53:24.970Z,32.87
2018-10-21T00:55:54.027Z,38.90
2018-10-21T00:58:22.769Z,32.27
2018-10-21T01:00:51.516Z,31.63
2018-10-21T01:03:20.383Z,34.40
2018-10-21T01:05:49.094Z,35.83
2018-10-21T01:08:17.807Z,34.17
2018-10-21T01:10:46.577Z,34.20
2018-10-21T01:13:15.211Z,35.77
2018-10-21T01:15:43.943Z,31.70
2018-10-21T01:18:12.671Z,36.77
2018-10-21T01:20:41.441Z,37.87
2018-10-21T01:23:10.150Z,35.73
2018-10-21T01:25:38.892Z,32.83
2018-10-21T01:28:07.654Z,35.43
2018-10-21T01:30:37.694Z,41.24
2018-10-21T01:33:06.740Z,35.37
2018-10-21T01:35:35.397Z,37.03
2018-10-21T01:38:04.178Z,35.00
2018-10-21T01:40:34.250Z,39.40
2018-10-21T01:43:03.242Z,38.77
2018-10-21T01:45:32.011Z,42.20
2018-10-21T01:48:01.839Z,42.90
2018-10-21T01:50:30.565Z,37.67
2018-10-21T01:53:00.452Z,38.93
2018-10-21T01:55:29.161Z,38.60
2018-10-21T01:57:58.439Z,39.00
2018-10-21T02:00:27.791Z,38.90
2018-10-21T02:02:57.000Z,39.03
2018-10-21T02:05:25.775Z,39.90
2018-10-21T02:07:54.731Z,41.93
2018-10-21T02:10:23.572Z,39.93
2018-10-21T02:12:52.352Z,38.57
2018-10-21T02:15:21.123Z,38.47
2018-10-21T02:17:49.916Z,36.97
2018-10-21T02:20:19.211Z,40.73
2018-10-21T02:22:48.375Z,41.33
2018-10-21T02:25:17.148Z,37.87
2018-10-21T02:27:46.517Z,38.83
2018-10-21T02:30:20.069Z,41.63
2018-10-21T02:32:49.470Z,36.97
2018-10-21T02:35:18.802Z,42.57
2018-10-21T02:37:47.907Z,40.23
2018-10-21T02:41:36.327Z,40.33
2018-10-21T02:44:06.175Z,41.73
2018-10-21T02:46:35.329Z,37.33
2018-10-21T02:49:04.814Z,38.63
2018-10-21T02:51:33.587Z,37.57
2018-10-21T02:54:02.313Z,38.73
2018-10-21T02:56:31.035Z,37.87
2018-10-21T02:58:59.733Z,40.87
2018-10-21T03:01:28.481Z,39.50
2018-10-21T03:03:57.172Z,41.80
2018-10-21T03:06:25.949Z,42.70
2018-10-21T03:08:54.891Z,38.20
2018-10-21T03:11:23.589Z,46.03
2018-10-21T03:13:52.344Z,39.80
2018-10-21T03:16:21.108Z,44.37
2018-10-21T03:18:49.976Z,38.77
2018-10-21T03:21:18.739Z,39.80
2018-10-21T03:23:47.427Z,40.80
2018-10-21T03:26:16.341Z,39.93
2018-10-21T03:28:45.151Z,42.03
2018-10-21T03:31:13.847Z,50.13
2018-10-21T03:33:42.740Z,40.77
2018-10-21T03:36:11.479Z,44.27
2018-10-21T03:38:40.127Z,43.33
2018-10-21T03:41:08.870Z,45.53
2018-10-21T03:43:37.579Z,47.23
2018-10-21T03:46:06.387Z,41.07
2018-10-21T03:48:35.107Z,41.87
2018-10-21T03:51:03.870Z,42.87
2018-10-21T03:53:32.551Z,45.10
2018-10-21T03:56:02.168Z,37.83
2018-10-21T03:58:30.915Z,39.97
2018-10-21T04:00:59.615Z,41.83
2018-10-21T04:03:28.964Z,41.97
2018-10-21T04:05:57.624Z,40.57
2018-10-21T04:08:26.328Z,45.27
2018-10-21T04:10:55.022Z,44.20
2018-10-21T04:13:23.684Z,42.80
2018-10-21T04:15:52.462Z,43.33
2018-10-21T04:18:21.288Z,41.87
2018-10-21T04:20:49.954Z,43.23
2018-10-21T04:23:18.600Z,40.17
2018-10-21T04:25:47.288Z,41.90
2018-10-21T04:28:16.098Z,43.97
2018-10-21T04:30:44.707Z,42.90
2018-10-21T04:33:18.762Z,42.57
2018-10-21T04:35:47.451Z,43.87
2018-10-21T04:38:30.359Z,43.73
2018-10-21T04:40:59.105Z,40.17
2018-10-21T04:43:27.857Z,49.17
2018-10-21T04:45:56.536Z,45.43
2018-10-21T04:48:25.224Z,46.73
2018-10-21T04:50:54.118Z,45.47
2018-10-21T04:53:22.968Z,46.20
2018-10-21T04:55:51.630Z,49.50
2018-10-21T04:58:20.495Z,50.50
2018-10-21T05:00:49.241Z,45.67
2018-10-21T05:03:18.127Z,44.37
2018-10-21T05:05:46.792Z,46.23
2018-10-21T05:08:15.448Z,43.67
2018-10-21T05:10:44.179Z,45.63
2018-10-21T05:13:12.916Z,43.67
2018-10-21T05:15:41.570Z,45.30
2018-10-21T05:18:10.265Z,49.07
2018-10-21T05:20:38.937Z,44.17
2018-10-21T05:23:07.651Z,44.80
2018-10-21T05:25:36.322Z,43.20
2018-10-21T05:28:05.122Z,42.50
2018-10-21T05:30:33.911Z,48.03
2018-10-21T05:33:02.585Z,44.87
2018-10-21T05:35:31.461Z,47.70
2018-10-21T05:38:00.381Z,42.27
2018-10-21T05:40:29.122Z,45.03
2018-10-21T05:42:58.046Z,44.63
2018-10-21T05:45:26.794Z,44.60
2018-10-21T05:47:55.784Z,44.33
2018-10-21T05:50:24.506Z,42.97
2018-10-21T05:52:53.192Z,49.20
2018-10-21T05:55:22.049Z,45.57
2018-10-21T05:57:50.719Z,45.43
2018-10-21T06:00:20.425Z,44.23
2018-10-21T06:02:49.468Z,42.10
2018-10-21T06:05:41.839Z,43.03
2018-10-21T06:08:10.967Z,41.53
2018-10-21T06:10:39.887Z,45.00
2018-10-21T06:13:08.753Z,45.60
2018-10-21T06:15:37.464Z,43.93
2018-10-21T06:18:08.722Z,44.73
2018-10-21T06:20:39.860Z,43.63
2018-10-21T06:23:08.543Z,45.13
2018-10-21T06:25:37.246Z,42.33
2018-10-21T06:28:06.416Z,45.57
2018-10-21T06:30:35.318Z,43.33
2018-10-21T06:33:04.234Z,48.23
2018-10-21T06:35:33.081Z,43.67
2018-10-21T06:38:01.769Z,42.87
2018-10-21T06:40:30.479Z,43.00
2018-10-21T06:42:59.246Z,45.13
2018-10-21T06:45:28.170Z,41.60
2018-10-21T06:47:56.920Z,47.67
2018-10-21T06:50:25.787Z,46.33
2018-10-21T06:52:54.497Z,43.70
2018-10-21T06:55:23.141Z,42.73
2018-10-21T06:57:51.865Z,45.40
2018-10-21T07:00:20.551Z,41.23
2018-10-21T07:02:49.355Z,44.43
2018-10-21T07:05:29.405Z,42.63
2018-10-21T07:07:58.077Z,42.90
2018-10-21T07:10:26.798Z,46.10
2018-10-21T07:12:55.446Z,40.63
2018-10-21T07:15:24.174Z,43.33
2018-10-21T07:17:53.124Z,40.40
2018-10-21T07:20:21.999Z,40.77
2018-10-21T07:22:50.729Z,43.97
2018-10-21T07:25:19.654Z,46.23
2018-10-21T07:27:48.547Z,43.33
2018-10-21T07:30:17.471Z,47.13
2018-10-21T07:32:46.240Z,42.63
2018-10-21T07:35:15.300Z,40.67
2018-10-21T07:37:44.577Z,44.00
2018-10-21T07:40:14.288Z,46.60
2018-10-21T07:42:43.498Z,46.13
2018-10-21T07:45:12.533Z,42.30
2018-10-21T07:47:41.287Z,46.70
2018-10-21T07:50:10.107Z,43.03
2018-10-21T07:52:38.827Z,43.40
2018-10-21T07:55:07.567Z,43.03
2018-10-21T07:57:36.248Z,42.73
2018-10-21T08:00:05.517Z,42.13
2018-10-21T08:02:34.259Z,47.93
2018-10-21T08:05:03.206Z,41.13
2018-10-21T08:07:43.026Z,41.33
2018-10-21T08:10:11.947Z,41.33
2018-10-21T08:12:40.718Z,41.50
2018-10-21T08:15:09.495Z,41.80
2018-10-21T08:17:38.195Z,43.50
2018-10-21T08:20:07.466Z,40.80
2018-10-21T08:22:36.301Z,41.33
2018-10-21T08:25:05.313Z,42.63
2018-10-21T08:27:34.126Z,40.07
2018-10-21T08:30:03.015Z,41.47
2018-10-21T08:32:31.917Z,42.13
2018-10-21T08:35:00.623Z,42.07
2018-10-21T08:37:29.554Z,39.13
2018-10-21T08:39:58.387Z,41.00
2018-10-21T08:42:27.069Z,39.37
2018-10-21T08:44:55.941Z,42.27
2018-10-21T08:47:25.221Z,44.60
2018-10-21T08:49:54.314Z,41.40
2018-10-21T08:52:23.229Z,40.77
2018-10-21T08:54:51.993Z,41.13
2018-10-21T08:57:20.728Z,40.03
2018-10-21T08:59:49.468Z,39.97
2018-10-21T09:02:18.473Z,39.10
2018-10-21T09:04:47.255Z,38.17
2018-10-21T09:07:16.049Z,42.77
2018-10-21T09:09:45.038Z,38.97
2018-10-21T09:12:13.810Z,40.57
2018-10-21T09:14:42.710Z,37.97
2018-10-21T09:17:11.542Z,37.97
2018-10-21T09:19:40.223Z,36.10
2018-10-21T09:22:09.256Z,37.23
2018-10-21T09:24:38.102Z,35.57
2018-10-21T09:27:07.236Z,38.53
2018-10-21T09:29:36.042Z,34.60
2018-10-21T09:32:04.773Z,36.57
2018-10-21T09:34:33.613Z,34.20
2018-10-21T09:37:02.348Z,34.67
2018-10-21T09:39:30.998Z,34.53
2018-10-21T09:41:59.722Z,33.53
2018-10-21T09:44:28.464Z,33.23
2018-10-21T09:46:57.164Z,33.33
2018-10-21T09:49:26.065Z,32.30
2018-10-21T09:51:54.788Z,32.53
2018-10-21T09:54:23.558Z,33.17
2018-10-21T09:56:52.228Z,34.23
2018-10-21T09:59:20.869Z,33.17
2018-10-21T10:01:54.888Z,32.20
2018-10-21T10:04:23.601Z,32.17
2018-10-21T10:06:52.534Z,31.60
2018-10-21T10:09:21.233Z,30.33
2018-10-21T10:11:50.024Z,32.17
2018-10-21T10:14:18.692Z,30.80
2018-10-21T10:16:47.534Z,30.57
2018-10-21T10:19:16.229Z,30.10
2018-10-21T10:21:44.897Z,31.87
2018-10-21T10:24:13.729Z,30.23
2018-10-21T10:26:42.611Z,29.77
2018-10-21T10:29:11.272Z,29.10
2018-10-21T10:31:40.162Z,27.43
2018-10-21T10:34:08.941Z,27.23
2018-10-21T10:36:37.525Z,27.67
2018-10-21T10:39:09.069Z,26.73
2018-10-21T10:41:38.246Z,25.27
2018-10-21T10:44:06.919Z,25.97
2018-10-21T10:46:35.635Z,26.40
2018-10-21T10:49:04.575Z,26.33
2018-10-21T10:51:33.371Z,26.00
2018-10-21T10:54:02.078Z,22.33
2018-10-21T10:56:30.913Z,24.20
2018-10-21T10:58:59.557Z,24.47
2018-10-21T11:01:28.260Z,24.97
2018-10-21T11:03:57.066Z,24.20
2018-10-21T11:06:26.032Z,24.37
2018-10-21T11:08:54.982Z,23.50
2018-10-21T11:11:23.701Z,23.00
2018-10-21T11:13:52.374Z,23.60
2018-10-21T11:16:21.205Z,21.10
2018-10-21T11:18:50.258Z,21.73
2018-10-21T11:21:18.956Z,21.07
2018-10-21T11:23:47.890Z,21.07
2018-10-21T11:26:16.545Z,21.30
2018-10-21T11:28:45.389Z,20.83
2018-10-21T11:31:14.544Z,21.53
2018-10-21T11:33:43.217Z,21.97
2018-10-21T11:36:11.945Z,22.30
2018-10-21T11:38:40.669Z,22.13
2018-10-21T11:41:09.343Z,22.13
2018-10-21T11:43:38.283Z,19.93
2018-10-21T11:46:07.399Z,19.90
2018-10-21T11:48:36.062Z,19.13
2018-10-21T11:51:04.780Z,20.00
2018-10-21T11:53:33.554Z,19.60
2018-10-21T11:56:02.292Z,19.97
2018-10-21T11:58:31.114Z,21.23
2018-10-21T12:01:00.094Z,20.80
2018-10-21T12:03:28.836Z,21.37
2018-10-21T12:05:57.563Z,21.43
2018-10-21T12:08:26.280Z,20.27
2018-10-21T12:10:54.983Z,21.03
2018-10-21T12:13:23.881Z,21.90
2018-10-21T12:15:52.583Z,22.33
2018-10-21T12:18:21.489Z,21.40
2018-10-21T12:20:50.201Z,20.97
2018-10-21T12:23:19.004Z,21.00
2018-10-21T12:25:47.692Z,22.13
2018-10-21T12:28:16.512Z,20.63
2018-10-21T12:30:45.208Z,20.63
2018-10-21T12:33:13.963Z,21.07
2018-10-21T12:35:42.609Z,21.77
2018-10-21T12:38:11.306Z,20.87
2018-10-21T12:40:40.068Z,22.93
2018-10-21T12:43:09.075Z,22.10
2018-10-21T12:45:37.942Z,23.07
2018-10-21T12:48:06.902Z,21.97
2018-10-21T12:50:35.942Z,21.50
2018-10-21T12:53:05.406Z,19.63
2018-10-21T12:55:38.072Z,19.67
2018-10-21T12:58:07.014Z,18.37
2018-10-21T13:00:35.856Z,19.23
2018-10-21T13:03:04.582Z,18.57
2018-10-21T13:05:33.349Z,19.17
2018-10-21T13:08:02.198Z,17.30
2018-10-21T13:10:30.871Z,14.87
2018-10-21T13:12:59.852Z,13.10
2018-10-21T13:15:28.427Z,14.33
2018-10-21T13:17:57.097Z,15.80
2018-10-21T13:20:25.795Z,15.53
2018-10-21T13:22:54.545Z,15.30
2018-10-21T13:25:23.228Z,13.83
2018-10-21T13:27:51.935Z,14.30
2018-10-21T13:30:20.741Z,14.97
2018-10-21T13:32:49.872Z,14.50
2018-10-21T13:35:18.861Z,14.67
2018-10-21T13:37:47.707Z,14.27
2018-10-21T13:40:16.509Z,16.87
2018-10-21T13:42:45.178Z,14.63
2018-10-21T13:45:13.864Z,14.27
2018-10-21T13:47:42.624Z,14.63
2018-10-21T13:50:11.347Z,14.50
2018-10-21T13:52:40.059Z,14.60
2018-10-21T13:55:09.439Z,14.37
2018-10-21T13:57:38.257Z,14.80
2018-10-21T14:00:07.795Z,15.67
2018-10-21T14:02:36.516Z,15.23
2018-10-21T14:05:06.165Z,15.47
2018-10-21T14:07:35.189Z,15.33
2018-10-21T14:10:04.156Z,14.70
2018-10-21T14:12:32.861Z,14.23
2018-10-21T14:15:01.644Z,14.33
2018-10-21T14:17:30.335Z,14.67
2018-10-21T14:19:58.983Z,13.77
2018-10-21T14:22:27.784Z,13.87
2018-10-21T14:24:56.601Z,13.60
2018-10-21T14:27:25.335Z,13.57
2018-10-21T14:29:54.092Z,13.70
2018-10-21T14:32:22.834Z,13.00
2018-10-21T14:34:51.919Z,13.23
2018-10-21T14:37:20.796Z,14.07
2018-10-21T14:39:49.747Z,13.13
2018-10-21T14:42:18.583Z,13.00
2018-10-21T14:44:47.262Z,13.33
2018-10-21T14:47:16.020Z,12.07
2018-10-21T14:49:44.851Z,11.93
2018-10-21T14:52:13.637Z,11.83
2018-10-21T14:54:42.360Z,10.57
2018-10-21T14:57:11.224Z,11.07
2018-10-21T14:59:39.977Z,11.13
2018-10-21T15:02:08.917Z,11.50
2018-10-21T15:04:37.755Z,12.30
2018-10-21T15:07:06.819Z,11.20
2018-10-21T15:09:35.738Z,10.90
2018-10-21T15:12:04.741Z,9.90
2018-10-21T15:14:33.715Z,9.47
2018-10-21T15:17:02.707Z,11.07
2018-10-21T15:19:31.850Z,11.83
2018-10-21T15:22:00.609Z,13.30
2018-10-21T15:24:29.456Z,11.40
2018-10-21T15:26:58.159Z,11.20
2018-10-21T15:29:26.888Z,11.17
2018-10-21T15:31:55.755Z,11.27
2018-10-21T15:34:24.552Z,11.70
2018-10-21T15:36:53.280Z,11.73
2018-10-21T15:39:22.004Z,11.17
2018-10-21T15:41:50.938Z,10.97
2018-10-21T15:44:19.802Z,11.93
2018-10-21T15:46:48.530Z,10.20
2018-10-21T15:49:17.227Z,10.97
2018-10-21T15:51:46.046Z,10.47
2018-10-21T15:54:14.747Z,12.53
2018-10-21T15:56:43.559Z,10.83
2018-10-21T15:59:12.307Z,10.87
2018-10-21T16:01:41.057Z,11.57
2018-10-21T16:04:09.820Z,14.07
2018-10-21T16:06:38.713Z,12.10
2018-10-21T16:09:10.141Z,12.00
2018-10-21T16:11:38.865Z,13.60
2018-10-21T16:14:07.734Z,12.67
2018-10-21T16:16:36.408Z,13.83
2018-10-21T16:19:05.221Z,12.80
2018-10-21T16:21:33.958Z,12.10
2018-10-21T16:24:02.664Z,13.73
2018-10-21T16:26:31.380Z,13.67
2018-10-21T16:29:00.102Z,12.73
2018-10-21T16:31:28.886Z,13.03
2018-10-21T16:33:57.753Z,16.33
2018-10-21T16:36:26.429Z,24.00
2018-10-21T16:38:55.527Z,22.17
2018-10-21T16:41:29.353Z,15.57
2018-10-21T16:43:58.074Z,13.80
2018-10-21T16:46:26.813Z,14.40
2018-10-21T16:48:55.479Z,14.27
2018-10-21T16:51:24.276Z,14.60
2018-10-21T16:53:52.941Z,15.63
2018-10-21T16:56:21.729Z,15.80
2018-10-21T16:58:50.411Z,15.77
2018-10-21T17:01:19.093Z,17.17
2018-10-21T17:03:47.934Z,15.17
2018-10-21T17:06:16.583Z,16.13
2018-10-21T17:08:45.461Z,16.10
2018-10-21T17:11:14.167Z,15.80
2018-10-21T17:13:42.872Z,15.50
2018-10-21T17:16:11.705Z,16.57
2018-10-21T17:18:40.460Z,16.37
2018-10-21T17:21:09.314Z,18.60
2018-10-21T17:23:38.022Z,19.33
2018-10-21T17:26:06.765Z,18.03
2018-10-21T17:28:35.784Z,18.33
2018-10-21T17:31:04.717Z,16.37
2018-10-21T17:33:33.497Z,18.23
2018-10-21T17:36:02.289Z,18.97
2018-10-21T17:38:31.093Z,17.73
2018-10-21T17:41:00.037Z,17.73
2018-10-21T17:43:29.025Z,17.50
2018-10-21T17:45:58.044Z,18.67
2018-10-21T17:48:27.049Z,18.27
2018-10-21T17:50:55.953Z,18.17
2018-10-21T17:53:25.011Z,18.82
2018-10-21T17:55:53.749Z,19.60
2018-10-21T17:58:22.624Z,20.43
2018-10-21T18:00:51.473Z,19.73
2018-10-21T18:03:20.270Z,20.60
2018-10-21T18:05:49.201Z,23.07
2018-10-21T18:08:18.604Z,30.10
2018-10-21T18:10:47.347Z,21.57
2018-10-21T18:13:16.257Z,21.40
2018-10-21T18:15:45.152Z,23.00
2018-10-21T18:18:13.894Z,20.70
2018-10-21T18:20:42.691Z,22.93
2018-10-21T18:23:11.509Z,20.43
2018-10-21T18:25:40.450Z,21.10
2018-10-21T18:28:09.172Z,23.10
2018-10-21T18:30:37.932Z,22.20
2018-10-21T18:33:06.726Z,21.33
2018-10-21T18:35:35.658Z,24.27
2018-10-21T18:38:04.415Z,25.67
2018-10-21T18:40:33.455Z,23.67
2018-10-21T18:43:02.234Z,23.60
2018-10-21T18:45:30.985Z,23.00
2018-10-21T18:47:59.996Z,23.40
2018-10-21T18:50:28.855Z,22.23
2018-10-21T18:52:57.570Z,22.77
2018-10-21T18:55:26.397Z,22.33
2018-10-21T18:57:55.211Z,23.10
2018-10-21T19:00:24.442Z,25.50
2018-10-21T19:02:53.253Z,23.97
2018-10-21T19:05:22.114Z,24.83
2018-10-21T19:07:50.961Z,24.10
2018-10-21T19:10:21.588Z,23.17
2018-10-21T19:13:00.048Z,27.23
2018-10-21T19:15:19.351Z,26.03
2018-10-21T19:17:48.144Z,26.83
2018-10-21T19:20:17.619Z,25.07
2018-10-21T19:22:46.386Z,24.10
2018-10-21T19:25:16.131Z,25.63
2018-10-21T19:27:45.684Z,24.00
2018-10-21T19:30:15.058Z,24.87
2018-10-21T19:32:44.145Z,26.27
2018-10-21T19:35:13.863Z,25.27
2018-10-21T19:37:42.660Z,24.37
2018-10-21T19:40:12.900Z,24.60
2018-10-21T19:42:42.127Z,24.90
2018-10-21T19:45:12.040Z,26.97
2018-10-21T19:47:41.344Z,24.53
2018-10-21T19:50:12.014Z,24.87
2018-10-21T19:52:41.768Z,26.27
2018-10-21T19:55:10.930Z,25.87
2018-10-21T19:57:39.676Z,27.47
2018-10-21T20:00:10.620Z,25.13
2018-10-21T20:02:39.314Z,24.60
2018-10-21T20:05:08.724Z,24.70
2018-10-21T20:07:37.484Z,28.00
2018-10-21T20:10:08.162Z,26.40
2018-10-21T20:12:37.502Z,26.93
2018-10-21T20:15:07.566Z,26.33
2018-10-21T20:17:36.336Z,26.37
2018-10-21T20:20:06.000Z,26.57
2018-10-21T20:22:34.839Z,27.67
2018-10-21T20:25:03.967Z,28.87
2018-10-21T20:27:32.778Z,25.03
2018-10-21T20:30:01.545Z,26.37
2018-10-21T20:32:30.643Z,28.47
2018-10-21T20:34:59.346Z,27.33
2018-10-21T20:37:28.342Z,26.13
2018-10-21T20:39:57.173Z,27.37
2018-10-21T20:42:26.066Z,27.07
2018-10-21T20:44:55.833Z,29.33
2018-10-21T20:47:24.606Z,27.97
2018-10-21T20:49:53.372Z,29.10
2018-10-21T20:52:22.487Z,27.53
2018-10-21T20:54:51.310Z,27.10
2018-10-21T20:57:20.150Z,27.43
2018-10-21T20:59:48.879Z,29.23
2018-10-21T21:02:17.781Z,31.13
2018-10-21T21:04:46.521Z,31.80
2018-10-21T21:07:15.456Z,27.63
2018-10-21T21:09:44.281Z,26.97
2018-10-21T21:12:13.196Z,30.73
2018-10-21T21:14:42.013Z,27.50
2018-10-21T21:17:10.805Z,27.50
2018-10-21T21:19:39.677Z,27.90
2018-10-21T21:22:08.449Z,28.57
2018-10-21T21:24:37.289Z,31.47
2018-10-21T21:27:06.081Z,27.60
2018-10-21T21:29:35.096Z,30.40
2018-10-21T21:32:03.948Z,28.30
2018-10-21T21:34:32.644Z,28.57
2018-10-21T21:37:01.583Z,28.07
2018-10-21T21:39:31.444Z,28.83
2018-10-21T21:42:00.401Z,27.00
2018-10-21T21:44:29.144Z,27.67
2018-10-21T21:46:57.899Z,26.27
2018-10-21T21:49:26.607Z,27.57
2018-10-21T21:51:55.490Z,27.63
2018-10-21T21:54:24.147Z,28.07
2018-10-21T21:56:52.874Z,26.53
2018-10-21T21:59:21.710Z,26.87
2018-10-21T22:01:50.514Z,28.23
2018-10-21T22:04:19.546Z,26.97
2018-10-21T22:06:48.390Z,28.73
2018-10-21T22:09:17.177Z,27.53
2018-10-21T22:11:46.083Z,27.37
2018-10-21T22:14:14.866Z,27.30
2018-10-21T22:16:43.552Z,27.33
2018-10-21T22:19:12.297Z,27.00
2018-10-21T22:21:41.085Z,27.13
2018-10-21T22:24:10.190Z,32.90
2018-10-21T22:26:38.943Z,29.50
2018-10-21T22:29:07.853Z,29.43
2018-10-21T22:31:36.737Z,28.30
2018-10-21T22:34:05.635Z,27.17
2018-10-21T22:36:34.467Z,28.30
2018-10-21T22:39:03.787Z,27.87
2018-10-21T22:41:32.835Z,27.73
2018-10-21T22:44:01.645Z,27.60
2018-10-21T22:46:30.419Z,27.07
2018-10-21T22:48:59.142Z,28.90
2018-10-21T22:51:27.882Z,31.63
2018-10-21T22:53:56.702Z,29.80
2018-10-21T22:56:25.407Z,30.83
2018-10-21T22:58:54.259Z,27.80
2018-10-21T23:01:23.053Z,28.53
2018-10-21T23:03:51.778Z,29.03
2018-10-21T23:06:20.939Z,27.83
2018-10-21T23:08:49.821Z,31.43
2018-10-21T23:11:18.523Z,29.27
2018-10-21T23:13:47.449Z,26.83
2018-10-21T23:16:16.313Z,28.17
2018-10-21T23:18:45.011Z,27.47
2018-10-21T23:21:13.810Z,32.47
2018-10-21T23:23:42.857Z,28.50
2018-10-21T23:26:11.606Z,27.47
2018-10-21T23:28:40.372Z,28.17
2018-10-21T23:31:09.236Z,29.10
2018-10-21T23:33:38.076Z,28.90
2018-10-21T23:36:06.838Z,26.87
2018-10-21T23:38:35.536Z,31.93
2018-10-21T23:41:04.238Z,33.97
2018-10-21T23:43:33.056Z,27.70
2018-10-21T23:46:01.800Z,30.00
2018-10-21T23:48:30.518Z,30.33
2018-10-21T23:50:59.199Z,28.37
2018-10-21T23:53:27.882Z,31.10
2018-10-21T23:55:56.674Z,30.27
2018-10-21T23:58:25.364Z,29.40
